Terminal Aerodrome Forecast
Issued by NWS Sterling, VA

Current Version | Previous Version | Graphics & Text | Print | Product List | Glossary On
Versions: 1 2 3 4 5 6 7 8 9 10 11 12 13 14 15 16 17 18 19 20 21
000
FTUS41 KLWX 152328
TAFIAD
TAF
KIAD 152328Z 1600/1706 VRB03KT P6SM SCT045
     FM161200 22007KT P6SM SCT120
     FM161600 23011KT P6SM SCT100
     FM162200 25006KT P6SM FEW110
     FM170400 00000KT P6SM FEW200=

USA.gov is the U.S. government's official web portal to all federal, state and local government web resources and services.